createdAt,value
2019-04-06T00:00:15.114Z,5.57
2019-04-06T00:02:42.701Z,6.13
2019-04-06T00:05:10.288Z,7.47
2019-04-06T00:07:37.883Z,6.53
2019-04-06T00:10:06.341Z,5.60
2019-04-06T00:12:33.928Z,6.00
2019-04-06T00:15:02.385Z,6.67
2019-04-06T00:17:29.975Z,6.07
2019-04-06T00:19:58.324Z,6.43
2019-04-06T00:22:25.927Z,6.83
2019-04-06T00:24:54.417Z,6.93
2019-04-06T00:27:24.583Z,7.53
2019-04-06T00:29:50.426Z,6.60
2019-04-06T00:32:18.000Z,6.25
2019-04-06T00:34:45.672Z,7.00
2019-04-06T00:37:14.025Z,7.23
2019-04-06T00:39:41.675Z,6.77
2019-04-06T00:42:09.266Z,6.63
2019-04-06T00:44:36.918Z,6.13
2019-04-06T00:47:04.626Z,5.17
2019-04-06T00:49:32.431Z,6.97
2019-04-06T00:52:00.896Z,6.50
2019-04-06T00:54:29.239Z,6.97
2019-04-06T00:56:56.976Z,6.27
2019-04-06T00:59:24.722Z,7.10
2019-04-06T01:01:52.420Z,6.43
2019-04-06T01:04:20.228Z,6.20
2019-04-06T01:06:49.389Z,6.57
2019-04-06T01:09:17.149Z,6.50
2019-04-06T01:11:44.796Z,6.63
2019-04-06T01:14:12.404Z,7.13
2019-04-06T01:16:40.093Z,6.23
2019-04-06T01:19:08.002Z,6.40
2019-04-06T01:21:35.634Z,7.40
2019-04-06T01:24:04.676Z,6.17
2019-04-06T01:26:32.258Z,6.70
2019-04-06T01:28:59.970Z,6.27
2019-04-06T01:31:28.465Z,6.97
2019-04-06T01:33:58.830Z,6.83
2019-04-06T01:36:24.560Z,7.10
2019-04-06T01:38:52.217Z,7.30
2019-04-06T01:41:20.242Z,6.27
2019-04-06T01:43:47.945Z,7.10
2019-04-06T01:46:15.664Z,6.47
2019-04-06T01:48:43.339Z,6.93
2019-04-06T01:51:10.920Z,7.13
2019-04-06T01:53:39.249Z,6.37
2019-04-06T01:56:17.972Z,8.17
2019-04-06T01:58:36.053Z,7.20
2019-04-06T02:01:14.415Z,6.80
2019-04-06T02:03:42.002Z,7.37
2019-04-06T02:06:09.899Z,7.70
2019-04-06T02:08:37.485Z,7.13
2019-04-06T02:11:05.630Z,7.30
2019-04-06T02:13:33.357Z,7.93
2019-04-06T02:16:01.093Z,7.63
2019-04-06T02:18:29.403Z,7.03
2019-04-06T02:20:56.980Z,7.33
2019-04-06T02:23:24.653Z,6.93
2019-04-06T02:25:52.307Z,8.10
2019-04-06T02:28:19.884Z,8.37
2019-04-06T02:30:49.003Z,7.83
2019-04-06T02:33:17.124Z,7.67
2019-04-06T02:35:47.397Z,7.40
2019-04-06T02:38:18.429Z,7.00
2019-04-06T02:40:49.581Z,8.10
2019-04-06T02:43:17.124Z,8.20
2019-04-06T02:45:44.692Z,8.17
2019-04-06T02:48:12.275Z,8.80
2019-04-06T02:50:39.994Z,7.43
2019-04-06T02:53:08.306Z,7.83
2019-04-06T02:55:35.852Z,9.07
2019-04-06T02:58:05.063Z,9.27
2019-04-06T03:00:33.098Z,9.87
2019-04-06T03:03:00.749Z,10.10
2019-04-06T03:05:28.357Z,10.33
2019-04-06T03:07:56.771Z,10.70
2019-04-06T03:10:24.385Z,9.43
2019-04-06T03:12:51.923Z,9.87
2019-04-06T03:15:19.550Z,8.50
2019-04-06T03:17:47.231Z,11.97
2019-04-06T03:20:14.795Z,10.50
2019-04-06T03:22:42.369Z,11.93
2019-04-06T03:25:10.130Z,8.90
2019-04-06T03:27:37.526Z,11.17
2019-04-06T03:30:06.943Z,11.37
2019-04-06T03:32:34.356Z,12.37
2019-04-06T03:35:02.418Z,12.50
2019-04-06T03:37:29.551Z,11.47
2019-04-06T03:39:57.892Z,11.37
2019-04-06T03:42:25.496Z,11.60
2019-04-06T03:44:53.913Z,12.20
2019-04-06T03:47:21.466Z,12.40
2019-04-06T03:49:49.213Z,13.07
2019-04-06T03:52:17.491Z,13.13
2019-04-06T03:54:45.847Z,13.63
2019-04-06T03:57:16.392Z,13.67
2019-04-06T03:59:41.906Z,13.60
2019-04-06T04:02:09.980Z,12.07
2019-04-06T04:04:37.581Z,10.70
2019-04-06T04:07:05.066Z,12.43
2019-04-06T04:09:32.553Z,12.33
2019-04-06T04:12:00.206Z,12.63
2019-04-06T04:14:27.690Z,12.80
2019-04-06T04:16:55.993Z,12.97
2019-04-06T04:19:23.623Z,14.37
2019-04-06T04:21:51.365Z,12.40
2019-04-06T04:24:18.774Z,10.60
2019-04-06T04:26:46.435Z,12.83
2019-04-06T04:29:14.121Z,12.80
2019-04-06T04:31:42.438Z,12.70
2019-04-06T04:34:09.984Z,12.40
2019-04-06T04:36:38.223Z,12.53
2019-04-06T04:39:05.940Z,12.43
2019-04-06T04:41:33.240Z,13.27
2019-04-06T04:44:00.811Z,12.30
2019-04-06T04:46:28.445Z,11.73
2019-04-06T04:48:56.065Z,14.40
2019-04-06T04:51:23.501Z,13.00
2019-04-06T04:53:51.105Z,13.50
2019-04-06T04:56:19.459Z,13.23
2019-04-06T04:58:47.007Z,12.70
2019-04-06T05:01:14.583Z,11.67
2019-04-06T05:03:42.057Z,12.67
2019-04-06T05:06:09.620Z,13.47
2019-04-06T05:08:37.891Z,12.83
2019-04-06T05:11:05.447Z,13.73
2019-04-06T05:13:33.448Z,12.93
2019-04-06T05:16:08.457Z,13.57
2019-04-06T05:18:35.935Z,12.73
2019-04-06T05:21:03.578Z,12.30
2019-04-06T05:23:31.067Z,13.23
2019-04-06T05:25:58.840Z,14.03
2019-04-06T05:28:26.883Z,13.53
2019-04-06T05:30:54.478Z,13.67
2019-04-06T05:33:21.919Z,14.47
2019-04-06T05:35:49.502Z,12.43
2019-04-06T05:38:16.940Z,11.80
2019-04-06T05:40:44.514Z,11.73
2019-04-06T05:43:12.198Z,12.50
2019-04-06T05:45:40.563Z,12.97
2019-04-06T05:48:08.033Z,13.20
2019-04-06T05:50:35.522Z,13.83
2019-04-06T05:53:04.719Z,13.53
2019-04-06T05:55:32.957Z,12.97
2019-04-06T05:58:04.392Z,12.33
2019-04-06T06:00:28.071Z,13.63
2019-04-06T06:02:55.549Z,13.33
2019-04-06T06:05:23.050Z,13.23
2019-04-06T06:07:50.562Z,12.90
2019-04-06T06:10:18.147Z,14.07
2019-04-06T06:12:45.928Z,14.40
2019-04-06T06:15:13.407Z,13.13
2019-04-06T06:17:41.657Z,13.60
2019-04-06T06:20:09.216Z,14.20
2019-04-06T06:22:36.714Z,13.23
2019-04-06T06:25:04.218Z,14.23
2019-04-06T06:27:31.836Z,13.40
2019-04-06T06:30:00.184Z,12.50
2019-04-06T06:32:27.671Z,14.10
2019-04-06T06:34:56.086Z,14.00
2019-04-06T06:37:24.209Z,15.30
2019-04-06T06:39:51.701Z,13.57
2019-04-06T06:42:19.951Z,14.87
2019-04-06T06:44:48.338Z,14.83
2019-04-06T06:47:16.643Z,12.23
2019-04-06T06:49:44.257Z,12.33
2019-04-06T06:52:12.506Z,13.77
2019-04-06T06:54:40.750Z,13.30
2019-04-06T06:57:08.774Z,13.07
2019-04-06T06:59:37.940Z,14.63
2019-04-06T07:02:06.200Z,14.27
2019-04-06T07:04:33.873Z,14.40
2019-04-06T07:07:01.359Z,13.63
2019-04-06T07:09:30.545Z,14.00
2019-04-06T07:11:58.240Z,14.77
2019-04-06T07:14:26.850Z,13.87
2019-04-06T07:16:54.553Z,14.80
2019-04-06T07:19:22.097Z,17.65
2019-04-06T07:21:49.577Z,14.60
2019-04-06T07:24:17.247Z,13.67
2019-04-06T07:26:44.797Z,13.70
2019-04-06T07:29:12.337Z,13.00
2019-04-06T07:31:40.757Z,14.77
2019-04-06T07:34:08.429Z,14.90
2019-04-06T07:36:36.082Z,15.17
2019-04-06T07:39:04.357Z,15.17
2019-04-06T07:41:31.875Z,15.63
2019-04-06T07:44:00.129Z,15.30
2019-04-06T07:46:27.604Z,13.73
2019-04-06T07:48:55.863Z,15.87
2019-04-06T07:51:24.947Z,14.37
2019-04-06T07:53:52.769Z,15.23
2019-04-06T07:56:20.906Z,14.77
2019-04-06T07:58:50.043Z,15.00
2019-04-06T08:01:16.201Z,14.10
2019-04-06T08:03:43.690Z,15.60
2019-04-06T08:06:11.724Z,14.97
2019-04-06T08:08:39.995Z,13.83
2019-04-06T08:11:07.486Z,15.30
2019-04-06T08:13:35.160Z,13.13
2019-04-06T08:16:04.286Z,16.37
2019-04-06T08:18:31.950Z,16.07
2019-04-06T08:20:59.441Z,16.47
2019-04-06T08:23:27.696Z,15.87
2019-04-06T08:25:56.365Z,16.77
2019-04-06T08:28:23.786Z,16.67
2019-04-06T08:30:52.003Z,16.13
2019-04-06T08:33:20.201Z,15.00
2019-04-06T08:35:48.168Z,14.83
2019-04-06T08:38:16.445Z,15.57
2019-04-06T08:40:44.245Z,14.87
2019-04-06T08:43:11.687Z,17.93
2019-04-06T08:45:39.622Z,17.63
2019-04-06T08:48:07.094Z,17.80
2019-04-06T08:50:34.770Z,16.40
2019-04-06T08:53:02.135Z,16.87
2019-04-06T08:55:29.803Z,15.00
2019-04-06T08:57:57.307Z,18.33
2019-04-06T09:00:24.808Z,16.70
2019-04-06T09:02:52.291Z,17.00
2019-04-06T09:05:19.768Z,17.27
2019-04-06T09:07:47.321Z,16.50
2019-04-06T09:10:15.009Z,16.73
2019-04-06T09:12:42.326Z,16.17
2019-04-06T09:15:10.009Z,18.03
2019-04-06T09:17:38.135Z,16.83
2019-04-06T09:20:06.490Z,16.60
2019-04-06T09:22:34.759Z,15.33
2019-04-06T09:25:02.539Z,16.53
2019-04-06T09:27:30.804Z,16.53
2019-04-06T09:29:58.467Z,13.77
2019-04-06T09:32:25.956Z,16.07
2019-04-06T09:34:54.374Z,17.13
2019-04-06T09:37:22.162Z,17.00
2019-04-06T09:39:49.542Z,17.00
2019-04-06T09:42:17.055Z,16.97
2019-04-06T09:44:46.996Z,16.50
2019-04-06T09:47:16.831Z,17.63
2019-04-06T09:52:47.998Z,23.08
2019-04-06T09:55:18.925Z,17.30
2019-04-06T10:00:46.815Z,22.83
2019-04-06T10:03:34.377Z,18.23
2019-04-06T10:06:02.506Z,17.97
2019-04-06T10:08:50.765Z,17.73
2019-04-06T10:11:22.319Z,16.92
2019-04-06T10:13:54.186Z,18.77
2019-04-06T10:16:23.383Z,15.83
2019-04-06T10:19:06.878Z,18.07
2019-04-06T10:21:34.388Z,18.43
2019-04-06T10:24:20.433Z,18.63
2019-04-06T10:29:50.512Z,23.92
2019-04-06T10:32:18.911Z,18.70
2019-04-06T10:34:52.232Z,17.07
2019-04-06T10:37:23.125Z,19.03
2019-04-06T10:39:53.160Z,18.33
2019-04-06T10:42:21.214Z,20.53
2019-04-06T10:44:55.028Z,19.97
2019-04-06T10:47:38.310Z,18.53
2019-04-06T10:50:11.612Z,18.07
2019-04-06T10:52:40.709Z,20.03
2019-04-06T10:55:08.767Z,18.10
2019-04-06T10:57:36.800Z,18.63
2019-04-06T11:00:22.405Z,17.10
2019-04-06T11:05:46.209Z,24.00
2019-04-06T11:11:24.062Z,23.98
2019-04-06T11:14:12.284Z,19.60
2019-04-06T11:16:41.846Z,19.17
2019-04-06T11:19:10.228Z,20.33
2019-04-06T11:21:56.088Z,20.30
2019-04-06T11:27:17.317Z,22.25
2019-04-06T11:30:11.267Z,18.63
2019-04-06T11:32:32.689Z,18.52
2019-04-06T11:35:05.921Z,18.30
2019-04-06T11:37:36.033Z,20.02
2019-04-06T11:40:04.352Z,16.50
2019-04-06T11:42:38.425Z,17.73
2019-04-06T11:45:12.145Z,18.47
2019-04-06T11:47:42.493Z,18.40
2019-04-06T11:53:03.801Z,23.73
2019-04-06T11:55:34.061Z,19.80
2019-04-06T11:58:17.038Z,17.63
2019-04-06T12:00:44.713Z,17.90
2019-04-06T12:03:14.776Z,18.87
2019-04-06T12:05:48.229Z,19.83
2019-04-06T12:08:15.728Z,19.23
2019-04-06T12:10:43.525Z,17.70
2019-04-06T12:13:21.719Z,18.33
2019-04-06T12:16:05.885Z,18.03
2019-04-06T12:18:50.041Z,18.63
2019-04-06T12:21:17.599Z,17.67
2019-04-06T12:23:46.013Z,19.30
2019-04-06T12:26:24.207Z,16.73
2019-04-06T12:28:51.924Z,18.20
2019-04-06T12:31:25.034Z,17.43
2019-04-06T12:33:55.585Z,17.07
2019-04-06T12:36:25.833Z,20.60
2019-04-06T12:38:59.408Z,20.17
2019-04-06T12:41:30.744Z,19.43
2019-04-06T12:44:13.323Z,20.93
2019-04-06T12:46:41.035Z,19.33
2019-04-06T12:49:14.544Z,19.20
2019-04-06T12:51:45.370Z,19.43
2019-04-06T12:54:18.658Z,19.53
2019-04-06T12:56:47.139Z,19.53
2019-04-06T12:59:18.002Z,18.80
2019-04-06T13:01:59.633Z,19.97
2019-04-06T13:04:33.718Z,19.60
2019-04-06T13:07:01.331Z,20.77
2019-04-06T13:12:43.849Z,25.37
2019-04-06T13:15:13.331Z,22.07
2019-04-06T13:17:41.771Z,20.33
2019-04-06T13:20:24.491Z,21.03
2019-04-06T13:23:12.629Z,22.10
2019-04-06T13:25:46.161Z,21.00
2019-04-06T13:28:19.002Z,19.00
2019-04-06T13:31:04.133Z,20.63
2019-04-06T13:33:39.564Z,20.33
2019-04-06T13:36:10.087Z,21.20
2019-04-06T13:38:46.747Z,22.50
2019-04-06T13:41:29.139Z,20.50
2019-04-06T13:44:03.178Z,18.90
2019-04-06T13:46:32.555Z,20.77
2019-04-06T13:51:55.119Z,26.73
2019-04-06T13:54:28.359Z,20.23
2019-04-06T13:56:57.191Z,20.40
2019-04-06T13:59:41.077Z,21.50
2019-04-06T14:02:26.274Z,19.80
2019-04-06T14:07:52.073Z,24.17
2019-04-06T14:10:37.367Z,20.10
2019-04-06T14:13:06.898Z,19.90
2019-04-06T14:15:35.366Z,21.43
2019-04-06T14:18:18.706Z,21.93
2019-04-06T14:20:52.582Z,22.97
2019-04-06T14:23:24.107Z,21.50
2019-04-06T14:25:56.793Z,19.13
2019-04-06T14:28:26.948Z,20.37
2019-04-06T14:31:00.242Z,19.77
2019-04-06T14:36:36.684Z,24.40
2019-04-06T14:39:06.419Z,21.77
2019-04-06T14:41:40.362Z,21.20
2019-04-06T14:44:22.776Z,21.47
2019-04-06T14:46:53.601Z,20.60
2019-04-06T14:52:35.148Z,25.15
2019-04-06T14:55:02.644Z,21.70
2019-04-06T14:57:48.075Z,20.93
2019-04-06T15:00:18.736Z,20.87
2019-04-06T15:05:41.233Z,27.02
2019-04-06T15:08:14.523Z,23.33
2019-04-06T15:10:45.194Z,22.43
2019-04-06T15:13:22.606Z,21.60
2019-04-06T15:15:51.816Z,22.33
2019-04-06T15:18:25.327Z,21.97
2019-04-06T15:20:53.985Z,20.73
2019-04-06T15:23:23.114Z,21.30
2019-04-06T15:28:45.161Z,25.60
2019-04-06T15:31:21.349Z,22.00
2019-04-06T15:33:55.315Z,24.20
2019-04-06T15:36:28.510Z,22.93
2019-04-06T15:38:56.820Z,22.47
2019-04-06T15:41:27.773Z,20.30
2019-04-06T15:43:59.305Z,22.10
2019-04-06T15:49:22.973Z,26.92
2019-04-06T15:52:12.396Z,21.93
2019-04-06T15:54:36.143Z,21.97
2019-04-06T15:57:05.645Z,20.60
2019-04-06T15:59:48.890Z,24.83
2019-04-06T16:02:23.149Z,24.60
2019-04-06T16:04:53.207Z,26.70
2019-04-06T16:07:36.408Z,24.77
2019-04-06T16:10:10.282Z,25.53
2019-04-06T16:15:37.160Z,32.50
2019-04-06T16:18:08.355Z,26.57
2019-04-06T16:20:41.393Z,23.67
2019-04-06T16:23:12.347Z,25.27
2019-04-06T16:25:41.859Z,22.53
2019-04-06T16:28:10.264Z,22.33
2019-04-06T16:33:48.188Z,27.80
2019-04-06T16:36:15.781Z,25.50
2019-04-06T16:38:48.292Z,24.13
2019-04-06T16:41:23.353Z,22.30
2019-04-06T16:43:50.569Z,22.73
2019-04-06T16:46:23.066Z,22.47
2019-04-06T16:48:52.405Z,21.90
2019-04-06T16:51:22.385Z,22.23
2019-04-06T16:53:50.450Z,23.57
2019-04-06T16:56:18.782Z,23.00
2019-04-06T16:58:56.174Z,24.57
2019-04-06T17:01:25.485Z,21.33
2019-04-06T17:03:58.883Z,24.53
2019-04-06T17:06:31.780Z,22.77
2019-04-06T17:09:14.160Z,24.77
2019-04-06T17:11:47.438Z,22.03
2019-04-06T17:14:20.846Z,22.80
2019-04-06T17:16:53.945Z,20.37
2019-04-06T17:19:38.276Z,24.40
2019-04-06T17:22:11.738Z,22.30
2019-04-06T17:24:47.664Z,24.33
2019-04-06T17:27:16.212Z,24.47
2019-04-06T17:29:48.604Z,24.93
2019-04-06T17:32:18.213Z,23.93
2019-04-06T17:34:54.244Z,23.70
2019-04-06T17:37:20.761Z,23.87
2019-04-06T17:39:55.008Z,23.93
2019-04-06T17:42:31.298Z,22.27
2019-04-06T17:45:04.719Z,22.00
2019-04-06T17:50:40.018Z,28.90
2019-04-06T17:53:09.217Z,23.47
2019-04-06T17:55:37.340Z,23.80
2019-04-06T18:01:15.060Z,29.20
2019-04-06T18:03:47.690Z,21.93
2019-04-06T18:06:18.561Z,23.47
2019-04-06T18:08:47.595Z,22.50
2019-04-06T18:11:24.433Z,25.73
2019-04-06T18:13:52.206Z,21.80
2019-04-06T18:16:20.867Z,22.63
2019-04-06T18:18:48.979Z,25.20
2019-04-06T18:21:18.638Z,24.33
2019-04-06T18:23:46.131Z,23.30
2019-04-06T18:26:14.231Z,26.17
2019-04-06T18:28:41.900Z,27.57
2019-04-06T18:31:11.843Z,24.53
2019-04-06T18:33:40.208Z,22.73
2019-04-06T18:36:07.766Z,25.20
2019-04-06T18:38:36.528Z,22.77
2019-04-06T18:41:04.882Z,24.73
2019-04-06T18:43:32.377Z,22.83
2019-04-06T18:45:59.894Z,24.50
2019-04-06T18:48:27.423Z,24.40
2019-04-06T18:50:55.387Z,25.13
2019-04-06T18:53:23.812Z,25.03
2019-04-06T18:55:51.280Z,24.53
2019-04-06T18:58:18.799Z,22.43
2019-04-06T19:00:46.326Z,25.30
2019-04-06T19:03:16.353Z,22.37
2019-04-06T19:05:43.344Z,23.17
2019-04-06T19:08:11.248Z,22.00
2019-04-06T19:10:39.262Z,22.00
2019-04-06T19:13:07.071Z,24.57
2019-04-06T19:15:34.613Z,23.73
2019-04-06T19:18:04.533Z,24.23
2019-04-06T19:20:32.029Z,22.43
2019-04-06T19:23:00.297Z,25.37
2019-04-06T19:25:28.336Z,22.47
2019-04-06T19:27:56.397Z,22.90
2019-04-06T19:30:23.776Z,24.43
2019-04-06T19:32:51.255Z,22.93
2019-04-06T19:35:18.803Z,22.83
2019-04-06T19:37:46.480Z,22.27
2019-04-06T19:40:14.720Z,23.10
2019-04-06T19:42:42.218Z,25.13
2019-04-06T19:45:10.181Z,22.98
2019-04-06T19:47:37.449Z,23.83
2019-04-06T19:50:05.991Z,23.73
2019-04-06T19:52:33.646Z,22.80
2019-04-06T19:55:01.407Z,22.07
2019-04-06T19:57:28.816Z,21.83
2019-04-06T19:59:57.229Z,22.40
2019-04-06T20:02:25.892Z,21.53
2019-04-06T20:04:53.145Z,22.27
2019-04-06T20:07:20.663Z,22.80
2019-04-06T20:09:48.241Z,22.03
2019-04-06T20:12:16.924Z,25.97
2019-04-06T20:14:44.067Z,23.43
2019-04-06T20:17:12.170Z,23.87
2019-04-06T20:19:39.217Z,24.03
2019-04-06T20:22:07.493Z,23.77
2019-04-06T20:24:34.220Z,23.87
2019-04-06T20:27:02.622Z,24.70
2019-04-06T20:29:30.215Z,21.63
2019-04-06T20:31:57.702Z,23.17
2019-04-06T20:34:25.489Z,22.80
2019-04-06T20:36:52.830Z,24.93
2019-04-06T20:39:20.399Z,23.47
2019-04-06T20:41:48.162Z,24.40
2019-04-06T20:44:15.551Z,22.97
2019-04-06T20:46:42.983Z,23.63
2019-04-06T20:49:10.869Z,23.87
2019-04-06T20:51:38.994Z,22.23
2019-04-06T20:54:07.505Z,22.27
2019-04-06T20:56:36.055Z,24.43
2019-04-06T20:59:04.821Z,24.10
2019-04-06T21:01:32.384Z,23.53
2019-04-06T21:04:02.842Z,23.77
2019-04-06T21:06:28.287Z,23.30
2019-04-06T21:08:56.166Z,24.60
2019-04-06T21:11:24.463Z,23.37
2019-04-06T21:13:51.918Z,24.60
2019-04-06T21:16:19.440Z,24.63
2019-04-06T21:18:46.998Z,24.80
2019-04-06T21:21:16.578Z,25.03
2019-04-06T21:23:44.050Z,23.33
2019-04-06T21:26:12.527Z,24.70
2019-04-06T21:28:41.088Z,24.70
2019-04-06T21:31:08.712Z,27.03
2019-04-06T21:33:37.465Z,27.27
2019-04-06T21:36:05.960Z,25.53
2019-04-06T21:38:33.187Z,25.48
2019-04-06T21:41:01.120Z,26.10
2019-04-06T21:43:28.927Z,24.40
2019-04-06T21:45:56.934Z,25.07
2019-04-06T21:48:24.883Z,24.40
2019-04-06T21:50:52.534Z,23.83
2019-04-06T21:53:20.063Z,27.30
2019-04-06T21:55:48.254Z,26.37
2019-04-06T21:58:15.140Z,26.00
2019-04-06T22:00:48.622Z,26.33
2019-04-06T22:03:17.042Z,26.37
2019-04-06T22:05:45.480Z,24.47
2019-04-06T22:08:13.124Z,27.53
2019-04-06T22:10:40.219Z,23.57
2019-04-06T22:13:08.328Z,26.20
2019-04-06T22:15:36.103Z,25.50
2019-04-06T22:18:03.715Z,25.10
2019-04-06T22:20:31.273Z,28.10
2019-04-06T22:22:58.838Z,28.97
2019-04-06T22:25:26.281Z,28.60
2019-04-06T22:27:54.949Z,28.37
2019-04-06T22:32:55.327Z,27.60
2019-04-06T22:35:23.568Z,24.20
2019-04-06T22:37:51.738Z,26.87
2019-04-06T22:40:18.563Z,28.70
2019-04-06T22:42:46.728Z,29.80
2019-04-06T22:45:14.802Z,27.17
2019-04-06T22:47:43.017Z,24.87
2019-04-06T22:50:10.691Z,27.30
2019-04-06T22:52:38.376Z,26.30
2019-04-06T22:55:06.468Z,25.83
2019-04-06T22:57:34.521Z,29.67
2019-04-06T23:00:02.221Z,26.90
2019-04-06T23:02:29.747Z,29.97
2019-04-06T23:05:00.207Z,30.50
2019-04-06T23:07:27.378Z,24.23
2019-04-06T23:09:55.635Z,26.43
2019-04-06T23:12:23.464Z,25.93
2019-04-06T23:14:50.629Z,27.43
2019-04-06T23:17:18.136Z,27.50
2019-04-06T23:19:46.243Z,25.53
2019-04-06T23:22:14.152Z,27.80
2019-04-06T23:24:40.868Z,26.77
2019-04-06T23:27:09.109Z,25.57
2019-04-06T23:29:36.606Z,25.13
2019-04-06T23:32:05.374Z,27.33
2019-04-06T23:34:32.521Z,25.90
2019-04-06T23:37:00.675Z,28.60
2019-04-06T23:39:27.590Z,25.67
2019-04-06T23:41:55.168Z,27.80
2019-04-06T23:44:22.793Z,25.27
2019-04-06T23:46:51.163Z,27.47
2019-04-06T23:49:19.117Z,26.47
2019-04-06T23:51:47.607Z,26.97
2019-04-06T23:54:15.991Z,27.67
2019-04-06T23:56:43.264Z,28.03
2019-04-06T23:59:10.785Z,28.02
